Time;durP1;ratioP1;P1;durP2;ratioP2;P2;SDS_P1;SDS_P2;PMS_P1;PMS_P2;Temp;Humidity;BMP_temperature;BMP_pressure;BME280_temperature;BME280_humidity;BME280_pressure;Samples;Min_cycle;Max_cycle;Signal;HPM_P1;HPM_P2
2023/04/24 00:01:54;;;;;;;0.70;0.70;;;16.60;61.10;;;;;;5071602;28;20174;-62
2023/04/24 00:04:20;;;;;;;1.25;0.98;;;16.60;61.10;;;;;;5072234;28;20626;-62
2023/04/24 00:06:49;;;;;;;0.70;0.70;;;16.60;61.00;;;;;;5071607;28;20182;-62
2023/04/24 00:09:15;;;;;;;0.70;0.70;;;16.60;61.10;;;;;;5072183;28;20231;-61
2023/04/24 00:11:41;;;;;;;0.90;0.80;;;16.60;61.00;;;;;;5072376;28;20179;-61
2023/04/24 00:14:06;;;;;;;0.70;0.70;;;16.60;61.10;;;;;;5070050;28;20705;-62
2023/04/24 00:16:32;;;;;;;0.70;0.70;;;16.60;61.10;;;;;;5072057;28;20182;-61
2023/04/24 00:18:58;;;;;;;1.48;0.98;;;16.50;61.10;;;;;;5072255;28;20212;-61
2023/04/24 00:21:25;;;;;;;1.85;1.00;;;16.50;61.00;;;;;;5071317;28;20292;-61
2023/04/24 00:23:51;;;;;;;0.90;0.90;;;16.50;61.10;;;;;;5072236;28;20593;-61
2023/04/24 00:26:16;;;;;;;1.45;0.75;;;16.60;61.10;;;;;;5075085;28;20273;-61
2023/04/24 00:28:42;;;;;;;0.70;0.70;;;16.60;61.10;;;;;;5075092;28;20174;-61
2023/04/24 00:31:07;;;;;;;1.10;1.05;;;16.50;61.00;;;;;;5075325;28;20174;-62
2023/04/24 00:33:33;;;;;;;1.48;0.90;;;16.50;60.90;;;;;;5075671;28;20205;-62
2023/04/24 00:35:58;;;;;;;1.90;1.00;;;16.50;61.00;;;;;;5074774;28;20685;-62
2023/04/24 00:38:24;;;;;;;0.93;0.90;;;16.50;61.10;;;;;;5075376;28;20178;-62
2023/04/24 00:40:50;;;;;;;0.95;0.95;;;16.50;61.10;;;;;;5075594;28;20175;-61
2023/04/24 00:43:16;;;;;;;1.10;0.80;;;16.50;61.00;;;;;;5074483;28;20175;-62
2023/04/24 00:45:41;;;;;;;1.58;0.85;;;16.50;61.00;;;;;;5075375;28;20266;-62
2023/04/24 00:48:07;;;;;;;0.70;0.70;;;16.60;61.10;;;;;;5075115;28;20257;-62
2023/04/24 00:50:33;;;;;;;0.93;0.82;;;16.50;61.00;;;;;;5074527;28;20261;-61
2023/04/24 00:52:58;;;;;;;0.70;0.70;;;16.50;61.00;;;;;;5075485;28;20174;-61
2023/04/24 00:55:24;;;;;;;0.57;0.57;;;16.50;61.00;;;;;;5074912;28;20711;-61
2023/04/24 00:57:50;;;;;;;0.88;0.88;;;16.50;61.00;;;;;;5074604;28;20257;-61
2023/04/24 01:00:16;;;;;;;0.70;0.70;;;16.50;61.00;;;;;;5073644;28;20204;-62
2023/04/24 01:02:45;;;;;;;0.80;0.80;;;16.50;61.00;;;;;;5075007;28;20179;-62
2023/04/24 01:05:14;;;;;;;1.15;0.80;;;16.50;61.00;;;;;;5073997;28;20550;-62
2023/04/24 01:07:43;;;;;;;0.77;0.63;;;16.50;61.00;;;;;;5074845;28;20681;-61
2023/04/24 01:10:09;;;;;;;0.68;0.68;;;16.50;61.00;;;;;;5073832;28;20637;-61
2023/04/24 01:12:35;;;;;;;1.15;0.75;;;16.50;61.10;;;;;;5075029;28;20173;-60
2023/04/24 01:15:00;;;;;;;0.80;0.80;;;16.50;61.00;;;;;;5074776;28;20332;-61
2023/04/24 01:17:26;;;;;;;0.95;0.63;;;16.50;61.00;;;;;;5072564;28;20647;-60
2023/04/24 01:19:56;;;;;;;0.68;0.68;;;16.50;61.00;;;;;;5074681;28;20182;-61
2023/04/24 01:22:22;;;;;;;1.25;0.90;;;16.50;61.00;;;;;;5074585;28;20249;-61
2023/04/24 01:24:47;;;;;;;0.80;0.70;;;16.50;61.00;;;;;;5073760;28;20356;-61
2023/04/24 01:27:13;;;;;;;0.70;0.70;;;16.50;61.00;;;;;;5074324;28;20178;-61
2023/04/24 01:29:38;;;;;;;1.00;1.00;;;16.50;61.00;;;;;;5074496;28;20179;-62
2023/04/24 01:32:04;;;;;;;0.70;0.70;;;16.50;61.00;;;;;;5073752;28;20648;-62
2023/04/24 01:34:30;;;;;;;0.95;0.95;;;16.40;60.90;;;;;;5074387;28;20190;-62
2023/04/24 01:36:56;;;;;;;0.95;0.95;;;16.40;60.90;;;;;;5073555;28;20166;-62
2023/04/24 01:39:23;;;;;;;0.77;0.77;;;16.40;60.90;;;;;;5073632;28;20642;-62
2023/04/24 01:41:50;;;;;;;1.00;1.00;;;16.40;61.00;;;;;;5073258;28;20543;-61
2023/04/24 01:44:15;;;;;;;1.27;1.17;;;16.40;60.90;;;;;;5072814;28;20653;-62
2023/04/24 01:46:41;;;;;;;0.90;0.90;;;16.40;61.00;;;;;;5073490;28;20210;-61
2023/04/24 01:49:06;;;;;;;1.08;1.08;;;16.40;61.00;;;;;;5074148;28;20219;-61
2023/04/24 01:51:32;;;;;;;1.75;1.20;;;16.40;61.00;;;;;;5074294;28;20180;-61
2023/04/24 01:53:57;;;;;;;1.10;1.10;;;16.40;61.00;;;;;;5073294;28;20181;-61
2023/04/24 01:56:23;;;;;;;1.27;1.17;;;16.40;61.00;;;;;;5073666;28;20206;-61
2023/04/24 01:58:50;;;;;;;1.30;1.20;;;16.40;61.00;;;;;;5072992;28;20224;-62
2023/04/24 02:01:23;;;;;;;1.35;1.25;;;16.40;61.00;;;;;;5071620;28;20195;-61
2023/04/24 02:03:48;;;;;;;1.45;1.35;;;16.40;61.00;;;;;;5072914;28;20178;-62
2023/04/24 02:06:14;;;;;;;1.27;1.17;;;16.40;61.00;;;;;;5073279;28;20181;-62
2023/04/24 02:08:39;;;;;;;1.40;1.30;;;16.40;61.00;;;;;;5073773;28;20175;-61
2023/04/24 02:11:05;;;;;;;1.90;1.35;;;16.40;60.90;;;;;;5073534;28;20249;-61
2023/04/24 02:13:31;;;;;;;1.10;1.10;;;16.40;60.90;;;;;;5073012;28;20171;-61
2023/04/24 02:15:58;;;;;;;1.30;1.20;;;16.40;60.90;;;;;;5073538;28;21085;-61
2023/04/24 02:18:23;;;;;;;1.33;1.05;;;16.40;60.90;;;;;;5073466;28;20179;-61
2023/04/24 02:20:49;;;;;;;1.30;1.20;;;16.40;60.90;;;;;;5073012;28;20166;-60
2023/04/24 02:23:15;;;;;;;1.20;1.10;;;16.40;60.90;;;;;;5073060;28;20622;-61
2023/04/24 02:25:40;;;;;;;1.17;1.13;;;16.40;60.90;;;;;;5073527;28;20599;-61
2023/04/24 02:28:06;;;;;;;1.50;1.40;;;16.40;61.40;;;;;;5072303;28;20177;-62
2023/04/24 02:30:31;;;;;;;1.25;1.15;;;16.40;61.00;;;;;;5073408;28;20186;-62
2023/04/24 02:32:57;;;;;;;1.45;1.35;;;16.40;60.90;;;;;;5073557;28;20170;-63
2023/04/24 02:35:22;;;;;;;1.40;1.30;;;16.40;60.90;;;;;;5072394;28;20298;-63
2023/04/24 02:37:48;;;;;;;1.58;1.48;;;16.40;60.90;;;;;;5073348;28;20300;-61
2023/04/24 02:40:14;;;;;;;1.65;1.50;;;16.40;60.90;;;;;;5072911;28;20182;-62
2023/04/24 02:42:39;;;;;;;1.17;1.10;;;16.40;61.70;;;;;;5072501;28;20179;-61
2023/04/24 02:45:05;;;;;;;2.05;1.40;;;16.40;60.90;;;;;;5072717;28;20181;-62
2023/04/24 02:47:31;;;;;;;1.60;1.50;;;16.40;60.90;;;;;;5072909;28;20637;-61
2023/04/24 02:49:56;;;;;;;1.10;1.10;;;16.40;61.00;;;;;;5072549;28;20182;-61
2023/04/24 02:52:22;;;;;;;2.03;1.80;;;16.40;61.00;;;;;;5072982;28;20265;-61
2023/04/24 02:54:47;;;;;;;1.50;1.38;;;16.40;61.00;;;;;;5073141;28;20229;-61
2023/04/24 02:57:13;;;;;;;1.85;1.70;;;16.40;61.00;;;;;;5071923;28;20174;-61
2023/04/24 02:59:38;;;;;;;1.77;1.67;;;16.30;60.90;;;;;;5072912;28;20178;-62
2023/04/24 03:02:04;;;;;;;1.98;1.83;;;16.40;61.00;;;;;;5073034;28;20171;-62
2023/04/24 03:04:29;;;;;;;1.50;1.40;;;16.30;60.90;;;;;;5072293;28;20177;-62
2023/04/24 03:06:55;;;;;;;3.17;1.73;;;16.30;60.90;;;;;;5073000;28;20202;-61
2023/04/24 03:09:21;;;;;;;1.70;1.60;;;16.30;60.90;;;;;;5072638;28;20261;-61
2023/04/24 03:11:46;;;;;;;1.90;1.80;;;16.40;60.90;;;;;;5072449;28;20170;-60
2023/04/24 03:14:12;;;;;;;1.73;1.63;;;16.30;60.90;;;;;;5072389;28;20767;-61
2023/04/24 03:16:37;;;;;;;1.60;1.50;;;16.30;60.90;;;;;;5072263;28;20178;-61
2023/04/24 03:19:03;;;;;;;1.77;1.67;;;16.30;60.90;;;;;;5072899;28;20162;-61
2023/04/24 03:21:28;;;;;;;1.60;1.50;;;16.40;61.00;;;;;;5072701;28;20265;-61
2023/04/24 03:23:54;;;;;;;1.63;1.50;;;16.40;61.00;;;;;;5072035;28;20379;-61
2023/04/24 03:26:20;;;;;;;2.00;1.90;;;16.30;61.00;;;;;;5072461;28;20253;-61
2023/04/24 03:28:45;;;;;;;1.77;1.67;;;16.30;61.00;;;;;;5072841;28;20228;-62
2023/04/24 03:31:11;;;;;;;1.90;1.80;;;16.30;61.00;;;;;;5072003;28;20186;-62
2023/04/24 03:33:36;;;;;;;2.40;2.03;;;16.30;60.90;;;;;;5072891;28;20182;-62
2023/04/24 03:36:02;;;;;;;1.95;1.80;;;16.30;61.00;;;;;;5072682;28;20309;-62
2023/04/24 03:38:27;;;;;;;1.95;1.85;;;16.30;60.90;;;;;;5071529;28;20170;-61
2023/04/24 03:40:53;;;;;;;2.20;2.00;;;16.30;60.90;;;;;;5072613;28;20174;-61
2023/04/24 03:43:19;;;;;;;1.75;1.65;;;16.30;60.90;;;;;;5072275;28;20162;-61
2023/04/24 03:45:44;;;;;;;2.05;1.88;;;16.30;61.00;;;;;;5072033;28;20175;-61
2023/04/24 03:48:10;;;;;;;1.90;1.80;;;16.30;61.00;;;;;;5072469;28;20198;-61
2023/04/24 03:50:35;;;;;;;1.98;1.77;;;16.30;61.00;;;;;;5072675;28;20599;-61
2023/04/24 03:53:01;;;;;;;2.13;2.00;;;16.30;61.00;;;;;;5071780;28;20513;-61
2023/04/24 03:55:26;;;;;;;2.05;1.85;;;16.30;60.90;;;;;;5072156;28;20252;-61
2023/04/24 03:57:52;;;;;;;2.17;2.08;;;16.30;61.00;;;;;;5072342;28;20241;-62
2023/04/24 04:00:18;;;;;;;2.20;2.00;;;16.30;60.90;;;;;;5072911;28;20633;-62
2023/04/24 04:02:44;;;;;;;2.50;2.30;;;16.30;60.90;;;;;;5076299;28;20179;-61
2023/04/24 04:05:09;;;;;;;2.10;2.00;;;16.30;60.90;;;;;;5076066;28;20637;-61
2023/04/24 04:07:35;;;;;;;2.17;2.03;;;16.30;61.00;;;;;;5075254;28;20696;-61
2023/04/24 04:10:00;;;;;;;2.35;2.15;;;16.30;60.90;;;;;;5076176;28;20174;-61
2023/04/24 04:12:26;;;;;;;2.50;2.30;;;16.30;60.90;;;;;;5075840;28;20175;-61
2023/04/24 04:14:51;;;;;;;2.40;2.20;;;16.20;60.90;;;;;;5075390;28;20202;-61
2023/04/24 04:17:17;;;;;;;2.85;2.55;;;16.30;61.00;;;;;;5075580;28;20265;-61
2023/04/24 04:19:43;;;;;;;2.30;2.20;;;16.20;60.90;;;;;;5076090;28;20186;-61
2023/04/24 04:22:08;;;;;;;2.65;2.10;;;16.30;61.00;;;;;;5075031;28;20182;-61
2023/04/24 04:24:37;;;;;;;2.72;2.53;;;16.20;60.90;;;;;;5075601;28;20226;-60
2023/04/24 04:27:04;;;;;;;2.53;2.33;;;16.20;60.90;;;;;;5074950;28;20175;-61
2023/04/24 04:29:31;;;;;;;2.58;2.30;;;16.30;60.90;;;;;;5075672;28;20621;-63
2023/04/24 04:31:56;;;;;;;2.90;2.53;;;16.20;60.90;;;;;;5075858;28;20178;-63
2023/04/24 04:34:23;;;;;;;3.15;2.70;;;16.20;60.80;;;;;;5074647;28;20208;-63
2023/04/24 04:36:50;;;;;;;3.15;2.60;;;16.30;60.90;;;;;;5075720;28;20602;-62
2023/04/24 04:39:16;;;;;;;3.70;3.40;;;16.20;60.90;;;;;;5074948;28;20181;-61
2023/04/24 04:41:42;;;;;;;3.05;2.85;;;16.20;60.80;;;;;;5074755;28;20182;-61
2023/04/24 04:44:08;;;;;;;4.13;2.97;;;16.20;60.90;;;;;;5075362;28;20170;-61
2023/04/24 04:46:34;;;;;;;3.15;2.35;;;16.20;60.80;;;;;;5075309;28;20514;-61
2023/04/24 04:49:01;;;;;;;2.95;2.40;;;16.20;60.90;;;;;;5074784;28;20181;-61
2023/04/24 04:51:26;;;;;;;3.00;2.53;;;16.20;60.90;;;;;;5075066;28;20257;-61
2023/04/24 04:53:52;;;;;;;3.03;2.83;;;16.20;60.80;;;;;;5075290;28;20602;-61
2023/04/24 04:56:18;;;;;;;2.70;2.50;;;16.20;60.80;;;;;;5074005;28;20597;-61
2023/04/24 04:58:43;;;;;;;2.70;2.50;;;16.20;60.80;;;;;;5075386;28;20316;-61
2023/04/24 05:01:09;;;;;;;3.00;2.80;;;16.20;60.80;;;;;;5074873;28;20261;-61
2023/04/24 05:03:35;;;;;;;3.00;2.80;;;16.30;60.90;;;;;;5074627;28;20170;-62
2023/04/24 05:06:01;;;;;;;3.50;3.20;;;16.20;60.90;;;;;;5075084;28;20175;-61
2023/04/24 05:08:27;;;;;;;2.80;2.60;;;16.20;60.80;;;;;;5073555;28;20182;-61
2023/04/24 05:10:52;;;;;;;2.78;2.58;;;16.20;60.80;;;;;;5073945;28;20551;-61
2023/04/24 05:13:18;;;;;;;3.17;2.83;;;16.20;60.80;;;;;;5074782;28;20664;-60
2023/04/24 05:15:43;;;;;;;3.00;2.80;;;16.20;60.90;;;;;;5074824;28;20210;-60
2023/04/24 05:18:09;;;;;;;2.53;2.33;;;16.20;60.90;;;;;;5074073;28;20174;-60
2023/04/24 05:20:35;;;;;;;2.78;2.58;;;16.20;60.90;;;;;;5074789;28;20179;-60
2023/04/24 05:23:00;;;;;;;2.67;2.47;;;16.20;60.80;;;;;;5074729;28;20174;-60
2023/04/24 05:25:26;;;;;;;3.50;2.83;;;16.20;60.80;;;;;;5073422;28;20309;-60
2023/04/24 05:27:53;;;;;;;3.42;2.85;;;16.20;60.80;;;;;;5074792;28;20174;-61
2023/04/24 05:30:19;;;;;;;2.92;2.72;;;16.20;60.90;;;;;;5073824;28;20201;-62
2023/04/24 05:32:44;;;;;;;3.30;3.00;;;16.20;60.80;;;;;;5074523;28;20629;-62
2023/04/24 05:35:10;;;;;;;3.13;2.67;;;16.20;60.90;;;;;;5074163;28;20212;-62
2023/04/24 05:37:35;;;;;;;2.95;2.75;;;16.20;60.90;;;;;;5073743;28;20170;-62
2023/04/24 05:40:01;;;;;;;2.88;2.65;;;16.20;60.80;;;;;;5074323;28;20213;-61
2023/04/24 05:42:26;;;;;;;2.95;2.75;;;16.10;60.80;;;;;;5074227;28;20265;-61
2023/04/24 05:44:53;;;;;;;2.85;2.65;;;16.20;60.90;;;;;;5073699;28;20210;-61
2023/04/24 05:47:19;;;;;;;2.70;2.50;;;16.20;60.90;;;;;;5073962;28;20265;-61
2023/04/24 05:49:44;;;;;;;2.60;2.40;;;16.20;60.90;;;;;;5074109;28;20206;-61
2023/04/24 05:52:10;;;;;;;3.05;2.53;;;16.20;60.80;;;;;;5073228;28;20175;-61
2023/04/24 05:54:36;;;;;;;2.90;2.70;;;16.20;60.90;;;;;;5073952;28;20179;-61
2023/04/24 05:57:07;;;;;;;2.63;2.47;;;16.20;60.90;;;;;;5073906;28;20572;-61
2023/04/24 05:59:41;;;;;;;2.50;2.30;;;16.20;60.80;;;;;;5073194;28;20308;-61
2023/04/24 06:02:07;;;;;;;2.60;2.40;;;16.20;60.60;;;;;;5073623;28;20632;-62
2023/04/24 06:04:33;;;;;;;2.70;2.50;;;16.40;60.50;;;;;;5073884;28;20177;-61
2023/04/24 06:06:59;;;;;;;2.45;2.25;;;16.40;60.40;;;;;;5073115;28;20253;-60
2023/04/24 06:09:25;;;;;;;2.58;2.42;;;16.50;60.40;;;;;;5073618;28;20205;-60
2023/04/24 06:11:53;;;;;;;2.35;2.20;;;16.60;60.30;;;;;;5073896;28;20210;-60
2023/04/24 06:14:19;;;;;;;2.47;2.28;;;16.70;60.10;;;;;;5072690;28;20186;-61
2023/04/24 06:16:45;;;;;;;2.50;2.30;;;16.80;59.90;;;;;;5073658;28;20653;-60
2023/04/24 06:19:10;;;;;;;2.38;2.15;;;16.90;59.80;;;;;;5073244;28;20175;-61
2023/04/24 06:21:36;;;;;;;2.20;2.00;;;17.00;59.60;;;;;;5072737;28;20196;-61
2023/04/24 06:24:02;;;;;;;2.10;2.00;;;17.20;59.50;;;;;;5072660;28;20580;-60
2023/04/24 06:26:27;;;;;;;2.83;2.58;;;17.30;59.40;;;;;;5072525;28;20178;-61
2023/04/24 06:28:56;;;;;;;2.00;1.90;;;17.40;59.40;;;;;;5073262;28;20182;-62
2023/04/24 06:31:22;;;;;;;1.88;1.70;;;17.40;59.30;;;;;;5073133;28;20178;-62
2023/04/24 06:33:48;;;;;;;1.83;1.73;;;17.50;59.30;;;;;;5072686;28;20184;-62
2023/04/24 06:36:13;;;;;;;2.95;2.25;;;17.50;59.30;;;;;;5072925;28;20249;-62
2023/04/24 06:38:39;;;;;;;3.53;2.20;;;17.60;59.30;;;;;;5073288;28;20656;-61
2023/04/24 06:41:05;;;;;;;3.97;1.75;;;17.70;59.40;;;;;;5072118;28;20690;-65
2023/04/24 06:43:31;;;;;;;1.80;1.58;;;17.70;59.50;;;;;;5073463;28;20186;-62
2023/04/24 06:45:57;;;;;;;2.03;1.75;;;17.80;59.20;;;;;;5073431;28;20179;-63
2023/04/24 06:48:24;;;;;;;1.90;1.55;;;17.80;59.20;;;;;;5071999;28;20261;-61
2023/04/24 06:50:49;;;;;;;5.80;1.95;;;17.90;59.30;;;;;;5072993;28;20228;-62
2023/04/24 06:53:15;;;;;;;2.25;2.00;;;17.80;59.20;;;;;;5072551;28;20594;-62
2023/04/24 06:55:40;;;;;;;2.47;2.00;;;17.80;59.30;;;;;;5072379;28;20297;-64
2023/04/24 06:58:06;;;;;;;2.83;1.90;;;17.70;59.60;;;;;;5071714;28;20625;-63
2023/04/24 07:00:32;;;;;;;2.05;1.73;;;17.60;59.60;;;;;;5071590;28;20203;-63
2023/04/24 07:02:57;;;;;;;5.38;1.95;;;17.50;59.70;;;;;;5072117;28;20386;-63
2023/04/24 07:05:23;;;;;;;4.40;2.28;;;17.50;59.90;;;;;;5072776;28;20254;-63
2023/04/24 07:07:50;;;;;;;3.55;1.90;;;17.40;60.00;;;;;;5071851;28;20296;-62
2023/04/24 07:10:15;;;;;;;4.65;2.20;;;17.40;60.00;;;;;;5071605;28;20177;-62
2023/04/24 07:12:41;;;;;;;3.10;2.10;;;17.30;60.20;;;;;;5072303;28;20171;-62
2023/04/24 07:15:08;;;;;;;2.70;2.15;;;17.30;60.50;;;;;;5071669;28;20407;-63
2023/04/24 07:17:34;;;;;;;2.15;1.77;;;17.30;60.40;;;;;;5070420;28;20220;-62
2023/04/24 07:20:00;;;;;;;3.20;2.17;;;17.20;60.50;;;;;;5071462;28;20182;-62
2023/04/24 07:22:25;;;;;;;3.17;2.00;;;17.20;60.60;;;;;;5071079;28;20210;-62
2023/04/24 07:24:51;;;;;;;3.08;1.90;;;17.10;60.70;;;;;;5070503;28;20271;-62
2023/04/24 07:27:16;;;;;;;1.88;1.65;;;17.10;60.80;;;;;;5071220;28;20174;-62
2023/04/24 07:29:42;;;;;;;3.63;2.08;;;17.00;60.90;;;;;;5071919;28;20228;-64
2023/04/24 07:32:08;;;;;;;3.40;1.90;;;17.00;61.00;;;;;;5071762;28;20616;-64
2023/04/24 07:34:33;;;;;;;3.20;1.80;;;17.00;61.00;;;;;;5074754;28;20701;-63
2023/04/24 07:36:59;;;;;;;1.63;1.50;;;16.90;61.00;;;;;;5076004;28;20653;-64
2023/04/24 07:39:24;;;;;;;2.63;1.45;;;16.90;61.10;;;;;;5076437;28;20641;-63
2023/04/24 07:41:50;;;;;;;2.50;1.70;;;16.90;61.10;;;;;;5076909;28;20265;-63
2023/04/24 07:44:15;;;;;;;2.47;1.80;;;16.80;61.00;;;;;;5075795;28;20167;-63
2023/04/24 07:46:41;;;;;;;1.52;1.42;;;16.80;61.10;;;;;;5076563;28;20178;-62
2023/04/24 07:49:07;;;;;;;3.97;1.60;;;16.80;61.10;;;;;;5076390;28;20637;-63
2023/04/24 07:51:37;;;;;;;1.75;1.30;;;16.80;61.10;;;;;;5074826;28;20211;-62
2023/04/24 07:54:06;;;;;;;2.30;1.63;;;16.90;61.20;;;;;;5076645;28;20186;-63
2023/04/24 07:56:32;;;;;;;2.30;1.73;;;16.90;61.00;;;;;;5076504;28;20210;-63
2023/04/24 07:58:58;;;;;;;1.65;1.50;;;16.90;60.80;;;;;;5075664;28;20178;-64
2023/04/24 08:01:24;;;;;;;1.80;1.58;;;17.00;60.80;;;;;;5076009;28;20589;-64
2023/04/24 08:03:50;;;;;;;1.40;1.30;;;17.00;60.70;;;;;;5076181;28;20263;-63
2023/04/24 08:06:15;;;;;;;3.70;1.38;;;17.00;60.70;;;;;;5075060;28;20186;-63
2023/04/24 08:08:41;;;;;;;3.00;1.40;;;16.90;60.60;;;;;;5074857;28;20213;-62
2023/04/24 08:11:06;;;;;;;1.48;1.20;;;16.90;60.70;;;;;;5075685;28;20174;-62
2023/04/24 08:13:32;;;;;;;2.50;1.73;;;16.90;60.70;;;;;;5075406;28;20171;-62
2023/04/24 08:15:57;;;;;;;1.63;1.30;;;16.90;60.80;;;;;;5075785;28;20206;-62
2023/04/24 08:18:23;;;;;;;1.60;1.50;;;16.80;60.70;;;;;;5075504;28;20174;-63
2023/04/24 08:20:48;;;;;;;1.40;1.30;;;16.90;60.70;;;;;;5075436;28;20175;-63
2023/04/24 08:23:14;;;;;;;1.40;1.30;;;16.90;60.60;;;;;;5075119;28;20181;-62
2023/04/24 08:25:39;;;;;;;1.98;1.88;;;16.90;60.50;;;;;;5075966;28;20189;-62
2023/04/24 08:28:06;;;;;;;1.60;1.40;;;17.00;60.50;;;;;;5074638;28;20173;-62
2023/04/24 08:30:31;;;;;;;1.27;1.13;;;16.90;60.40;;;;;;5075788;28;20570;-63
2023/04/24 08:32:57;;;;;;;1.70;1.60;;;16.90;60.30;;;;;;5075712;28;20629;-65
2023/04/24 08:35:23;;;;;;;2.53;1.45;;;16.90;60.40;;;;;;5074789;28;20645;-64
2023/04/24 08:37:48;;;;;;;1.67;1.55;;;16.90;60.40;;;;;;5075486;28;20181;-64
2023/04/24 08:40:14;;;;;;;1.40;1.30;;;16.90;61.30;;;;;;5074467;28;20210;-63
2023/04/24 08:42:42;;;;;;;2.25;1.60;;;16.80;60.40;;;;;;5075695;28;20186;-62
2023/04/24 08:45:09;;;;;;;2.33;1.70;;;16.80;60.40;;;;;;5074947;28;20179;-63
2023/04/24 08:47:35;;;;;;;1.75;1.63;;;16.80;60.40;;;;;;5074444;28;20170;-62
2023/04/24 08:50:02;;;;;;;1.90;1.50;;;16.80;60.40;;;;;;5074363;28;20262;-62
2023/04/24 08:52:28;;;;;;;3.13;2.42;;;16.80;60.50;;;;;;5073885;28;20178;-63
2023/04/24 08:54:54;;;;;;;1.73;1.63;;;16.80;60.50;;;;;;5073465;28;20210;-61
2023/04/24 08:57:20;;;;;;;4.07;2.25;;;16.70;60.40;;;;;;5073054;28;20174;-64
2023/04/24 08:59:45;;;;;;;8.00;2.17;;;16.70;60.40;;;;;;5075044;28;20175;-62
2023/04/24 09:02:11;;;;;;;2.42;2.22;;;16.70;60.60;;;;;;5072749;28;20198;-63
2023/04/24 09:04:37;;;;;;;3.05;2.00;;;16.70;60.60;;;;;;5074984;28;20265;-62
2023/04/24 09:07:02;;;;;;;3.58;2.08;;;16.70;60.80;;;;;;5076248;28;20173;-62
2023/04/24 09:09:29;;;;;;;4.45;2.40;;;16.70;60.90;;;;;;5092610;28;20177;-63
2023/04/24 09:11:55;;;;;;;2.03;1.90;;;16.60;60.90;;;;;;5092507;28;20185;-61
2023/04/24 09:14:22;;;;;;;2.58;2.38;;;16.70;60.80;;;;;;5092187;28;20173;-63
2023/04/24 09:16:48;;;;;;;2.50;2.20;;;16.60;60.80;;;;;;5092049;28;20257;-62
2023/04/24 09:19:14;;;;;;;3.28;2.20;;;16.60;60.70;;;;;;5094929;28;20250;-62
2023/04/24 09:21:41;;;;;;;2.47;2.28;;;16.60;60.70;;;;;;5094882;28;20170;-61
2023/04/24 09:24:14;;;;;;;4.57;2.30;;;16.60;60.60;;;;;;5093363;28;20229;-61
2023/04/24 09:26:39;;;;;;;1.98;1.80;;;16.60;60.80;;;;;;5093822;28;20166;-62
2023/04/24 09:29:05;;;;;;;2.03;1.85;;;16.60;60.80;;;;;;5094670;28;20196;-64
2023/04/24 09:31:31;;;;;;;2.60;2.30;;;16.60;60.80;;;;;;5094174;28;20530;-63
2023/04/24 09:34:03;;;;;;;2.83;2.42;;;16.60;60.80;;;;;;5080431;28;20199;-64
2023/04/24 09:36:37;;;;;;;2.35;2.00;;;16.60;60.80;;;;;;5073298;28;20237;-62
2023/04/24 09:39:13;;;;;;;2.45;2.22;;;16.60;60.60;;;;;;5074314;28;20170;-62
2023/04/24 09:41:45;;;;;;;3.20;2.20;;;16.50;60.50;;;;;;5074507;28;20197;-62
2023/04/24 09:44:21;;;;;;;2.05;1.92;;;16.60;60.70;;;;;;5073406;28;20175;-63
2023/04/24 09:46:57;;;;;;;1.92;1.73;;;16.50;60.60;;;;;;5074237;28;20177;-62
2023/04/24 09:49:26;;;;;;;2.47;2.20;;;16.50;60.50;;;;;;5073909;28;20181;-62
2023/04/24 09:51:52;;;;;;;4.22;2.35;;;16.50;60.70;;;;;;5073390;28;20736;-62
2023/04/24 09:54:19;;;;;;;2.28;2.00;;;16.60;60.50;;;;;;5073688;28;20281;-62
2023/04/24 09:56:46;;;;;;;2.75;2.25;;;16.60;60.60;;;;;;5073568;28;20633;-62
2023/04/24 09:59:12;;;;;;;2.92;2.10;;;16.60;60.50;;;;;;5072352;28;20182;-63
2023/04/24 10:01:41;;;;;;;3.13;1.80;;;16.60;60.50;;;;;;5074033;28;20189;-63
2023/04/24 10:04:08;;;;;;;2.05;1.88;;;16.60;60.30;;;;;;5073596;28;20235;-62
2023/04/24 10:06:34;;;;;;;2.72;2.03;;;16.70;60.40;;;;;;5056572;28;20178;-62
2023/04/24 10:09:00;;;;;;;3.97;2.10;;;16.70;60.20;;;;;;5094162;28;20166;-62
2023/04/24 10:11:26;;;;;;;2.83;2.00;;;16.70;60.20;;;;;;5093821;28;20177;-62
2023/04/24 10:13:52;;;;;;;2.58;1.98;;;16.70;60.20;;;;;;5092930;28;20256;-62
2023/04/24 10:16:18;;;;;;;2.13;1.77;;;16.70;60.20;;;;;;5093589;28;20296;-62
2023/04/24 10:18:43;;;;;;;4.30;2.05;;;16.80;60.10;;;;;;5093038;28;20504;-62
2023/04/24 10:21:09;;;;;;;3.67;2.47;;;16.80;59.90;;;;;;5092330;28;20181;-63
2023/04/24 10:23:34;;;;;;;6.07;2.33;;;16.80;59.80;;;;;;5093230;28;20209;-62
2023/04/24 10:26:00;;;;;;;5.60;2.47;;;16.80;59.70;;;;;;5091417;28;20640;-62
2023/04/24 10:28:26;;;;;;;4.15;2.45;;;16.80;59.70;;;;;;5091943;28;20173;-63
2023/04/24 10:30:51;;;;;;;7.15;2.30;;;16.80;59.60;;;;;;5092250;28;20223;-64
2023/04/24 10:33:17;;;;;;;4.63;2.03;;;16.90;59.60;;;;;;5091438;28;20650;-65
2023/04/24 10:35:45;;;;;;;3.83;2.30;;;16.90;59.60;;;;;;5093379;28;20209;-62
2023/04/24 10:38:15;;;;;;;5.72;2.17;;;16.90;59.80;;;;;;5092191;28;20174;-63
2023/04/24 10:40:42;;;;;;;8.20;2.53;;;16.80;59.70;;;;;;5092909;28;20201;-62
2023/04/24 10:43:09;;;;;;;4.97;2.22;;;16.80;59.80;;;;;;5093098;28;20170;-62
2023/04/24 10:45:35;;;;;;;3.20;2.35;;;16.80;59.90;;;;;;5093318;28;20654;-63
2023/04/24 10:48:02;;;;;;;4.60;2.30;;;16.80;59.90;;;;;;5092564;28;20273;-61
2023/04/24 10:50:30;;;;;;;7.05;2.63;;;16.70;59.90;;;;;;5093179;28;20520;-61
2023/04/24 10:53:05;;;;;;;6.28;2.55;;;16.70;60.00;;;;;;5093561;28;20177;-60
2023/04/24 10:55:48;;;;;;;4.13;2.17;;;16.70;60.30;;;;;;5092518;28;20204;-61
2023/04/24 10:58:16;;;;;;;2.85;2.17;;;16.70;60.30;;;;;;5092981;28;20195;-62
2023/04/24 11:00:41;;;;;;;3.63;1.98;;;16.60;60.10;;;;;;5093025;28;20184;-62
2023/04/24 11:03:28;;;;;;;5.25;1.88;;;16.70;60.20;;;;;;5092139;28;20177;-64
2023/04/24 11:05:58;;;;;;;8.38;3.10;;;16.70;60.30;;;;;;5093364;28;20201;-63
2023/04/24 11:08:43;;;;;;;3.97;2.47;;;16.70;60.20;;;;;;5075067;28;20186;-63
2023/04/24 11:11:12;;;;;;;4.28;2.58;;;16.70;60.10;;;;;;5072492;28;20174;-62
2023/04/24 11:13:53;;;;;;;6.75;2.42;;;16.80;60.10;;;;;;5072825;28;20540;-64
2023/04/24 11:16:35;;;;;;;5.38;2.47;;;16.80;60.00;;;;;;5071780;28;20218;-61
2023/04/24 11:19:08;;;;;;;6.38;2.58;;;16.80;60.00;;;;;;5072743;28;20183;-61
2023/04/24 11:21:42;;;;;;;4.65;2.55;;;16.80;60.00;;;;;;5072629;28;20178;-61
2023/04/24 11:24:26;;;;;;;3.17;2.15;;;16.70;60.10;;;;;;5071535;28;20305;-61
2023/04/24 11:26:56;;;;;;;5.68;2.35;;;16.80;60.00;;;;;;5072813;28;20197;-62
2023/04/24 11:29:22;;;;;;;2.67;2.13;;;16.80;59.90;;;;;;5070484;28;20303;-63
2023/04/24 11:31:49;;;;;;;4.90;2.10;;;16.80;59.80;;;;;;5072809;28;20648;-63
2023/04/24 11:34:16;;;;;;;4.57;2.50;;;16.90;59.70;;;;;;5071953;28;20177;-63
2023/04/24 11:36:45;;;;;;;5.45;2.45;;;17.00;59.60;;;;;;5070441;28;20672;-62
2023/04/24 11:39:11;;;;;;;4.55;2.40;;;17.00;59.50;;;;;;5072093;28;20641;-62
2023/04/24 11:41:37;;;;;;;6.22;2.53;;;17.00;59.60;;;;;;5072293;28;20178;-62
2023/04/24 11:44:03;;;;;;;5.70;2.67;;;16.90;59.60;;;;;;5071662;28;20178;-61
2023/04/24 11:46:29;;;;;;;3.25;2.08;;;16.90;59.70;;;;;;5072280;28;20182;-61
2023/04/24 11:48:56;;;;;;;2.63;1.92;;;16.90;59.70;;;;;;5072538;28;20170;-61
2023/04/24 11:51:23;;;;;;;4.75;2.03;;;16.80;59.60;;;;;;5071489;28;20224;-61
2023/04/24 11:53:49;;;;;;;4.38;2.03;;;16.80;59.70;;;;;;5072363;28;20232;-61
2023/04/24 11:56:18;;;;;;;5.07;2.25;;;16.80;59.60;;;;;;5072135;28;20213;-61
2023/04/24 11:58:44;;;;;;;4.97;1.95;;;16.80;59.70;;;;;;5071155;28;20170;-62
2023/04/24 12:01:10;;;;;;;3.05;1.98;;;16.80;59.70;;;;;;5071657;28;20671;-62
2023/04/24 12:03:35;;;;;;;3.92;2.22;;;16.80;59.70;;;;;;5072449;28;20163;-63
2023/04/24 12:06:08;;;;;;;4.55;1.77;;;16.70;59.70;;;;;;5071657;28;20580;-62
2023/04/24 12:08:34;;;;;;;2.72;1.73;;;16.70;59.80;;;;;;5090061;28;20553;-61
2023/04/24 12:11:03;;;;;;;4.07;2.22;;;16.70;59.80;;;;;;5092596;28;20260;-62
2023/04/24 12:13:29;;;;;;;6.55;1.63;;;16.60;59.70;;;;;;5091451;28;20174;-62
2023/04/24 12:15:55;;;;;;;3.05;1.63;;;16.60;59.70;;;;;;5092219;28;20270;-62
2023/04/24 12:18:24;;;;;;;2.63;1.55;;;16.60;59.60;;;;;;5090068;28;20176;-61
2023/04/24 12:20:49;;;;;;;5.22;2.03;;;16.60;59.50;;;;;;5093470;28;20178;-60
2023/04/24 12:23:15;;;;;;;4.68;1.63;;;16.60;59.60;;;;;;5095630;28;20189;-61
2023/04/24 12:25:41;;;;;;;2.45;1.58;;;16.70;59.40;;;;;;5095339;28;20268;-60
2023/04/24 12:28:07;;;;;;;5.28;1.90;;;16.70;59.20;;;;;;5095826;28;20169;-60
2023/04/24 12:30:34;;;;;;;4.07;2.22;;;16.80;59.00;;;;;;5096106;28;20178;-62
2023/04/24 12:33:00;;;;;;;3.95;1.92;;;16.90;58.90;;;;;;5095396;28;20205;-62
2023/04/24 12:35:27;;;;;;;5.60;1.92;;;17.00;58.80;;;;;;5095654;28;20260;-63
2023/04/24 12:37:53;;;;;;;4.60;1.90;;;17.00;58.80;;;;;;5095750;28;20633;-63
2023/04/24 12:40:20;;;;;;;4.40;1.65;;;17.10;58.90;;;;;;5094650;28;20184;-64
2023/04/24 12:42:47;;;;;;;3.60;1.80;;;17.00;58.90;;;;;;5095600;28;20249;-63
2023/04/24 12:45:13;;;;;;;3.70;1.48;;;17.10;58.90;;;;;;5095582;28;20226;-62